sensor_id;sensor_type;location;lat;lon;timestamp;pressure;altitude;pressure_sealevel;temperature;humidity
12349;BME280;5974;42.710;27.258;2023-03-15T00:01:26;99525.81;;;0.09;100.00
12349;BME280;5974;42.710;27.258;2023-03-15T00:03:53;99524.16;;;0.02;100.00
12349;BME280;5974;42.710;27.258;2023-03-15T00:06:20;99521.59;;;0.02;100.00
12349;BME280;5974;42.710;27.258;2023-03-15T00:08:47;99518.88;;;0.17;100.00
12349;BME280;5974;42.710;27.258;2023-03-15T00:11:14;99507.72;;;0.19;100.00
12349;BME280;5974;42.710;27.258;2023-03-15T00:13:41;99505.16;;;0.19;100.00
12349;BME280;5974;42.710;27.258;2023-03-15T00:16:10;99496.59;;;0.20;100.00
12349;BME280;5974;42.710;27.258;2023-03-15T00:18:42;99501.72;;;0.19;100.00
12349;BME280;5974;42.710;27.258;2023-03-15T00:21:11;99489.03;;;0.02;100.00
12349;BME280;5974;42.710;27.258;2023-03-15T00:23:38;99491.59;;;0.05;100.00
12349;BME280;5974;42.710;27.258;2023-03-15T00:26:05;99495.84;;;0.09;100.00
12349;BME280;5974;42.710;27.258;2023-03-15T00:28:31;99488.94;;;0.10;100.00
12349;BME280;5974;42.710;27.258;2023-03-15T00:31:02;99475.38;;;0.00;100.00
12349;BME280;5974;42.710;27.258;2023-03-15T00:33:31;99468.50;;;-0.03;100.00
12349;BME280;5974;42.710;27.258;2023-03-15T00:36:02;99451.47;;;-0.10;100.00
12349;BME280;5974;42.710;27.258;2023-03-15T00:38:29;99446.59;;;-0.41;100.00
12349;BME280;5974;42.710;27.258;2023-03-15T00:40:56;99431.28;;;-0.53;100.00
12349;BME280;5974;42.710;27.258;2023-03-15T00:43:23;99432.00;;;-0.35;100.00
12349;BME280;5974;42.710;27.258;2023-03-15T00:45:50;99405.66;;;-0.61;100.00
12349;BME280;5974;42.710;27.258;2023-03-15T00:48:16;99436.31;;;-0.43;100.00
12349;BME280;5974;42.710;27.258;2023-03-15T00:50:45;99431.16;;;-0.40;100.00
12349;BME280;5974;42.710;27.258;2023-03-15T00:53:11;99438.75;;;-0.22;100.00
12349;BME280;5974;42.710;27.258;2023-03-15T00:55:38;99432.59;;;-0.09;100.00
12349;BME280;5974;42.710;27.258;2023-03-15T00:58:06;99430.03;;;-0.09;100.00
12349;BME280;5974;42.710;27.258;2023-03-15T01:00:33;99427.38;;;-1.18;100.00
12349;BME280;5974;42.710;27.258;2023-03-15T01:03:02;99422.38;;;-1.44;100.00
12349;BME280;5974;42.710;27.258;2023-03-15T01:05:29;99423.31;;;-1.75;100.00
12349;BME280;5974;42.710;27.258;2023-03-15T01:07:58;99408.03;;;-2.07;100.00
12349;BME280;5974;42.710;27.258;2023-03-15T01:10:27;99404.53;;;-1.67;100.00
12349;BME280;5974;42.710;27.258;2023-03-15T01:12:54;99409.59;;;-1.54;100.00
12349;BME280;5974;42.710;27.258;2023-03-15T01:15:21;99403.66;;;-1.69;100.00
12349;BME280;5974;42.710;27.258;2023-03-15T01:17:48;99402.66;;;-1.30;100.00
12349;BME280;5974;42.710;27.258;2023-03-15T01:20:15;99397.38;;;-1.02;100.00
12349;BME280;5974;42.710;27.258;2023-03-15T01:22:42;99391.47;;;-1.17;100.00
12349;BME280;5974;42.710;27.258;2023-03-15T01:25:10;99394.09;;;-1.26;100.00
12349;BME280;5974;42.710;27.258;2023-03-15T01:27:37;99383.78;;;-1.15;100.00
12349;BME280;5974;42.710;27.258;2023-03-15T01:30:05;99350.50;;;-1.24;100.00
12349;BME280;5974;42.710;27.258;2023-03-15T01:32:32;99383.75;;;-1.14;100.00
12349;BME280;5974;42.710;27.258;2023-03-15T01:34:59;99383.22;;;-1.82;100.00
12349;BME280;5974;42.710;27.258;2023-03-15T01:37:25;99386.63;;;-1.77;100.00
12349;BME280;5974;42.710;27.258;2023-03-15T01:39:53;99371.09;;;-1.41;100.00
12349;BME280;5974;42.710;27.258;2023-03-15T01:42:22;99372.69;;;-1.17;100.00
12349;BME280;5974;42.710;27.258;2023-03-15T01:44:52;99348.03;;;-1.39;100.00
12349;BME280;5974;42.710;27.258;2023-03-15T01:47:19;99368.47;;;-1.27;100.00
12349;BME280;5974;42.710;27.258;2023-03-15T01:49:49;99377.94;;;-1.40;100.00
12349;BME280;5974;42.710;27.258;2023-03-15T01:52:19;99374.50;;;-1.37;100.00
12349;BME280;5974;42.710;27.258;2023-03-15T01:54:49;99366.78;;;-1.31;100.00
12349;BME280;5974;42.710;27.258;2023-03-15T01:57:19;99335.13;;;-1.24;100.00
12349;BME280;5974;42.710;27.258;2023-03-15T01:59:52;99366.63;;;-1.05;100.00
12349;BME280;5974;42.710;27.258;2023-03-15T02:02:21;99367.50;;;-1.10;100.00
12349;BME280;5974;42.710;27.258;2023-03-15T02:04:54;99353.81;;;-1.05;100.00
12349;BME280;5974;42.710;27.258;2023-03-15T02:07:24;99350.31;;;-0.94;100.00
12349;BME280;5974;42.710;27.258;2023-03-15T02:09:59;99350.44;;;-1.12;100.00
12349;BME280;5974;42.710;27.258;2023-03-15T02:12:29;99342.75;;;-1.12;100.00
12349;BME280;5974;42.710;27.258;2023-03-15T02:15:00;99357.34;;;-1.25;100.00
12349;BME280;5974;42.710;27.258;2023-03-15T02:17:32;99354.00;;;-1.39;100.00
12349;BME280;5974;42.710;27.258;2023-03-15T02:20:10;99331.06;;;-1.61;100.00
12349;BME280;5974;42.710;27.258;2023-03-15T02:22:46;99346.38;;;-1.52;100.00
12349;BME280;5974;42.710;27.258;2023-03-15T02:25:21;99318.22;;;-1.63;100.00
12349;BME280;5974;42.710;27.258;2023-03-15T02:27:53;99340.38;;;-1.45;100.00
12349;BME280;5974;42.710;27.258;2023-03-15T02:30:21;99354.91;;;-1.46;100.00
12349;BME280;5974;42.710;27.258;2023-03-15T02:32:48;99362.56;;;-1.47;100.00
12349;BME280;5974;42.710;27.258;2023-03-15T02:35:22;99365.94;;;-1.33;100.00
12349;BME280;5974;42.710;27.258;2023-03-15T02:37:49;99368.47;;;-1.24;100.00
12349;BME280;5974;42.710;27.258;2023-03-15T02:40:18;99373.75;;;-1.65;100.00
12349;BME280;5974;42.710;27.258;2023-03-15T02:42:47;99357.53;;;-1.61;100.00
12349;BME280;5974;42.710;27.258;2023-03-15T02:45:18;99374.56;;;-1.52;100.00
12349;BME280;5974;42.710;27.258;2023-03-15T02:47:46;99380.53;;;-1.50;100.00
12349;BME280;5974;42.710;27.258;2023-03-15T02:50:14;99367.72;;;-1.53;100.00
12349;BME280;5974;42.710;27.258;2023-03-15T02:52:41;99359.22;;;-1.63;100.00
12349;BME280;5974;42.710;27.258;2023-03-15T02:55:08;99352.38;;;-1.55;100.00
12349;BME280;5974;42.710;27.258;2023-03-15T02:57:35;99362.69;;;-1.72;100.00
12349;BME280;5974;42.710;27.258;2023-03-15T03:00:03;99362.66;;;-1.63;100.00
12349;BME280;5974;42.710;27.258;2023-03-15T03:02:40;99363.44;;;-1.45;100.00
12349;BME280;5974;42.710;27.258;2023-03-15T03:05:08;99365.13;;;-1.44;100.00
12349;BME280;5974;42.710;27.258;2023-03-15T03:07:36;99351.56;;;-1.69;100.00
12349;BME280;5974;42.710;27.258;2023-03-15T03:10:04;99371.34;;;-2.16;100.00
12349;BME280;5974;42.710;27.258;2023-03-15T03:12:32;99376.31;;;-1.60;100.00
12349;BME280;5974;42.710;27.258;2023-03-15T03:14:58;99366.88;;;-1.49;100.00
12349;BME280;5974;42.710;27.258;2023-03-15T03:17:27;99365.09;;;-1.41;100.00
12349;BME280;5974;42.710;27.258;2023-03-15T03:19:55;99357.59;;;-1.76;100.00
12349;BME280;5974;42.710;27.258;2023-03-15T03:22:22;99370.44;;;-1.88;100.00
12349;BME280;5974;42.710;27.258;2023-03-15T03:24:50;99381.47;;;-1.68;100.00
12349;BME280;5974;42.710;27.258;2023-03-15T03:27:17;99373.78;;;-1.70;100.00
12349;BME280;5974;42.710;27.258;2023-03-15T03:29:44;99376.50;;;-2.42;100.00
12349;BME280;5974;42.710;27.258;2023-03-15T03:32:11;99379.03;;;-3.01;100.00
12349;BME280;5974;42.710;27.258;2023-03-15T03:34:38;99380.78;;;-2.47;100.00
12349;BME280;5974;42.710;27.258;2023-03-15T03:37:06;99375.63;;;-2.14;100.00
12349;BME280;5974;42.710;27.258;2023-03-15T03:39:33;99374.72;;;-1.95;100.00
12349;BME280;5974;42.710;27.258;2023-03-15T03:42:00;99361.06;;;-1.92;100.00
12349;BME280;5974;42.710;27.258;2023-03-15T03:44:27;99368.75;;;-1.94;100.00
12349;BME280;5974;42.710;27.258;2023-03-15T03:46:53;99367.00;;;-1.90;100.00
12349;BME280;5974;42.710;27.258;2023-03-15T03:49:20;99369.63;;;-2.01;100.00
12349;BME280;5974;42.710;27.258;2023-03-15T03:51:47;99363.72;;;-2.57;100.00
12349;BME280;5974;42.710;27.258;2023-03-15T03:54:15;99369.69;;;-2.40;100.00
12349;BME280;5974;42.710;27.258;2023-03-15T03:56:45;99355.16;;;-3.06;100.00
12349;BME280;5974;42.710;27.258;2023-03-15T03:59:12;99366.28;;;-2.56;100.00
12349;BME280;5974;42.710;27.258;2023-03-15T04:01:39;99369.69;;;-2.34;100.00
12349;BME280;5974;42.710;27.258;2023-03-15T04:04:06;99358.56;;;-2.30;100.00
12349;BME280;5974;42.710;27.258;2023-03-15T04:06:33;99360.31;;;-2.73;100.00
12349;BME280;5974;42.710;27.258;2023-03-15T04:09:01;99356.91;;;-2.37;100.00
12349;BME280;5974;42.710;27.258;2023-03-15T04:11:30;99359.44;;;-2.34;100.00
12349;BME280;5974;42.710;27.258;2023-03-15T04:13:56;99367.13;;;-2.36;100.00
12349;BME280;5974;42.710;27.258;2023-03-15T04:16:23;99359.44;;;-2.74;100.00
12349;BME280;5974;42.710;27.258;2023-03-15T04:18:50;99371.38;;;-2.35;100.00
12349;BME280;5974;42.710;27.258;2023-03-15T04:21:20;99377.38;;;-2.34;100.00
12349;BME280;5974;42.710;27.258;2023-03-15T04:23:47;99370.50;;;-2.17;100.00
12349;BME280;5974;42.710;27.258;2023-03-15T04:26:14;99372.22;;;-2.16;100.00
12349;BME280;5974;42.710;27.258;2023-03-15T04:28:42;99363.66;;;-2.09;100.00
12349;BME280;5974;42.710;27.258;2023-03-15T04:31:10;99367.06;;;-2.01;100.00
12349;BME280;5974;42.710;27.258;2023-03-15T04:33:39;99360.22;;;-2.02;100.00
12349;BME280;5974;42.710;27.258;2023-03-15T04:36:06;99357.66;;;-1.99;100.00
12349;BME280;5974;42.710;27.258;2023-03-15T04:38:33;99355.97;;;-2.12;100.00
12349;BME280;5974;42.710;27.258;2023-03-15T04:41:00;99349.88;;;-1.72;100.00
12349;BME280;5974;42.710;27.258;2023-03-15T04:43:35;99341.22;;;-1.45;100.00
12349;BME280;5974;42.710;27.258;2023-03-15T04:46:03;99346.28;;;-1.30;100.00
12349;BME280;5974;42.710;27.258;2023-03-15T04:48:30;99342.75;;;-1.15;100.00
12349;BME280;5974;42.710;27.258;2023-03-15T04:50:57;99336.69;;;-1.02;100.00
12349;BME280;5974;42.710;27.258;2023-03-15T04:53:23;99338.22;;;-0.78;100.00
12349;BME280;5974;42.710;27.258;2023-03-15T04:55:50;99331.44;;;-0.85;100.00
12349;BME280;5974;42.710;27.258;2023-03-15T04:58:18;99300.88;;;-1.16;100.00
12349;BME280;5974;42.710;27.258;2023-03-15T05:00:45;99334.81;;;-0.82;100.00
12349;BME280;5974;42.710;27.258;2023-03-15T05:03:14;99330.44;;;-0.69;100.00
12349;BME280;5974;42.710;27.258;2023-03-15T05:05:41;99308.94;;;-0.55;100.00
12349;BME280;5974;42.710;27.258;2023-03-15T05:08:07;99327.38;;;-0.16;100.00
12349;BME280;5974;42.710;27.258;2023-03-15T05:10:34;99316.63;;;0.25;100.00
12349;BME280;5974;42.710;27.258;2023-03-15T05:13:01;99310.06;;;0.70;100.00
12349;BME280;5974;42.710;27.258;2023-03-15T05:15:28;99311.84;;;2.16;100.00
12349;BME280;5974;42.710;27.258;2023-03-15T05:17:55;99296.78;;;3.48;100.00
12349;BME280;5974;42.710;27.258;2023-03-15T05:20:23;99280.94;;;5.87;100.00
12349;BME280;5974;42.710;27.258;2023-03-15T05:22:50;99269.09;;;9.79;100.00
12349;BME280;5974;42.710;27.258;2023-03-15T05:25:18;99274.81;;;11.00;82.93
12349;BME280;5974;42.710;27.258;2023-03-15T05:27:45;99277.69;;;12.85;70.54
12349;BME280;5974;42.710;27.258;2023-03-15T05:30:12;99253.75;;;14.58;62.52
12349;BME280;5974;42.710;27.258;2023-03-15T05:32:40;99265.91;;;15.08;56.23
12349;BME280;5974;42.710;27.258;2023-03-15T05:35:10;99270.84;;;13.23;55.93
12349;BME280;5974;42.710;27.258;2023-03-15T05:37:38;99260.09;;;13.40;57.05
12349;BME280;5974;42.710;27.258;2023-03-15T05:40:08;99255.47;;;14.21;54.96
12349;BME280;5974;42.710;27.258;2023-03-15T05:42:35;99259.38;;;15.37;52.38
12349;BME280;5974;42.710;27.258;2023-03-15T05:45:03;99257.28;;;15.88;50.86
12349;BME280;5974;42.710;27.258;2023-03-15T05:47:30;99263.25;;;17.23;48.79
12349;BME280;5974;42.710;27.258;2023-03-15T05:49:56;99258.41;;;14.91;50.60
12349;BME280;5974;42.710;27.258;2023-03-15T05:52:23;99256.44;;;13.16;54.78
12349;BME280;5974;42.710;27.258;2023-03-15T05:54:52;99261.16;;;12.00;57.05
12349;BME280;5974;42.710;27.258;2023-03-15T05:57:19;99257.81;;;11.68;59.43
12349;BME280;5974;42.710;27.258;2023-03-15T05:59:45;99241.34;;;9.61;62.21
12349;BME280;5974;42.710;27.258;2023-03-15T06:02:12;99269.19;;;8.90;65.72
12349;BME280;5974;42.710;27.258;2023-03-15T06:04:39;99269.94;;;7.97;68.27
12349;BME280;5974;42.710;27.258;2023-03-15T06:07:06;99267.34;;;7.37;72.40
12349;BME280;5974;42.710;27.258;2023-03-15T06:09:33;99253.41;;;10.13;71.09
12349;BME280;5974;42.710;27.258;2023-03-15T06:12:01;99253.13;;;12.86;64.15
12349;BME280;5974;42.710;27.258;2023-03-15T06:14:28;99242.44;;;13.42;60.13
12349;BME280;5974;42.710;27.258;2023-03-15T06:16:55;99241.69;;;13.92;58.30
12349;BME280;5974;42.710;27.258;2023-03-15T06:19:22;99241.56;;;14.06;57.97
12349;BME280;5974;42.710;27.258;2023-03-15T06:21:49;99235.03;;;12.55;58.68
12349;BME280;5974;42.710;27.258;2023-03-15T06:24:16;99224.28;;;13.39;57.84
12349;BME280;5974;42.710;27.258;2023-03-15T06:26:43;99222.09;;;13.46;58.03
12349;BME280;5974;42.710;27.258;2023-03-15T06:29:11;99211.50;;;13.73;58.08
12349;BME280;5974;42.710;27.258;2023-03-15T06:31:38;99211.97;;;13.27;58.02
12349;BME280;5974;42.710;27.258;2023-03-15T06:34:05;99209.78;;;13.34;58.60
12349;BME280;5974;42.710;27.258;2023-03-15T06:36:32;99210.00;;;13.43;60.67
12349;BME280;5974;42.710;27.258;2023-03-15T06:38:58;99206.50;;;13.30;60.52
12349;BME280;5974;42.710;27.258;2023-03-15T06:41:27;99207.75;;;13.25;60.50
12349;BME280;5974;42.710;27.258;2023-03-15T06:43:53;99204.53;;;14.22;60.98
12349;BME280;5974;42.710;27.258;2023-03-15T06:46:22;99212.28;;;14.98;60.03
12349;BME280;5974;42.710;27.258;2023-03-15T06:48:48;99204.41;;;17.21;56.99
12349;BME280;5974;42.710;27.258;2023-03-15T06:51:15;99209.16;;;16.96;54.92
12349;BME280;5974;42.710;27.258;2023-03-15T06:53:42;99199.88;;;17.44;54.82
12349;BME280;5974;42.710;27.258;2023-03-15T06:56:09;99203.88;;;17.07;54.41
12349;BME280;5974;42.710;27.258;2023-03-15T06:58:36;99195.56;;;16.79;54.26
12349;BME280;5974;42.710;27.258;2023-03-15T07:01:03;99195.72;;;17.51;53.81
12349;BME280;5974;42.710;27.258;2023-03-15T07:03:31;99188.47;;;18.85;51.60
12349;BME280;5974;42.710;27.258;2023-03-15T07:05:58;99192.97;;;19.62;48.80
12349;BME280;5974;42.710;27.258;2023-03-15T07:08:25;99192.47;;;17.79;51.91
12349;BME280;5974;42.710;27.258;2023-03-15T07:10:52;99189.13;;;20.39;47.98
12349;BME280;5974;42.710;27.258;2023-03-15T07:13:19;99185.16;;;19.31;48.58
12349;BME280;5974;42.710;27.258;2023-03-15T07:15:50;99175.06;;;20.29;46.82
12349;BME280;5974;42.710;27.258;2023-03-15T07:18:17;99171.44;;;19.74;45.65
12349;BME280;5974;42.710;27.258;2023-03-15T07:20:45;99176.75;;;16.62;50.23
12349;BME280;5974;42.710;27.258;2023-03-15T07:23:12;99179.94;;;16.76;51.80
12349;BME280;5974;42.710;27.258;2023-03-15T07:25:39;99184.66;;;16.51;51.22
12349;BME280;5974;42.710;27.258;2023-03-15T07:28:06;99187.41;;;18.27;48.04
12349;BME280;5974;42.710;27.258;2023-03-15T07:30:33;99181.81;;;21.14;44.25
12349;BME280;5974;42.710;27.258;2023-03-15T07:32:59;99176.00;;;21.53;43.92
12349;BME280;5974;42.710;27.258;2023-03-15T07:35:26;99167.56;;;21.58;43.30
12349;BME280;5974;42.710;27.258;2023-03-15T07:37:54;99166.63;;;20.34;43.73
12349;BME280;5974;42.710;27.258;2023-03-15T07:40:21;99159.72;;;19.29;43.83
12349;BME280;5974;42.710;27.258;2023-03-15T07:42:50;99161.56;;;17.18;43.64
12349;BME280;5974;42.710;27.258;2023-03-15T07:45:17;99164.44;;;16.18;46.80
12349;BME280;5974;42.710;27.258;2023-03-15T07:47:44;99157.56;;;14.67;48.35
12349;BME280;5974;42.710;27.258;2023-03-15T07:50:11;99162.19;;;13.26;51.60
12349;BME280;5974;42.710;27.258;2023-03-15T07:52:38;99160.56;;;14.37;50.94
12349;BME280;5974;42.710;27.258;2023-03-15T07:55:06;99151.31;;;15.50;48.91
12349;BME280;5974;42.710;27.258;2023-03-15T07:57:34;99155.59;;;14.08;50.56
12349;BME280;5974;42.710;27.258;2023-03-15T08:00:01;99154.94;;;14.05;50.60
12349;BME280;5974;42.710;27.258;2023-03-15T08:02:29;99168.34;;;12.18;52.42
12349;BME280;5974;42.710;27.258;2023-03-15T08:04:55;99154.31;;;13.13;51.55
12349;BME280;5974;42.710;27.258;2023-03-15T08:07:23;99161.06;;;12.49;53.15
12349;BME280;5974;42.710;27.258;2023-03-15T08:09:50;99147.38;;;13.88;51.32
12349;BME280;5974;42.710;27.258;2023-03-15T08:12:18;99150.31;;;13.33;51.44
12349;BME280;5974;42.710;27.258;2023-03-15T08:14:45;99149.16;;;13.24;51.23
12349;BME280;5974;42.710;27.258;2023-03-15T08:17:12;99154.78;;;12.52;53.16
12349;BME280;5974;42.710;27.258;2023-03-15T08:19:40;99150.56;;;13.93;51.91
12349;BME280;5974;42.710;27.258;2023-03-15T08:22:09;99147.78;;;14.20;50.37
12349;BME280;5974;42.710;27.258;2023-03-15T08:24:36;99148.34;;;13.87;50.24
12349;BME280;5974;42.710;27.258;2023-03-15T08:27:03;99146.78;;;13.72;51.18
12349;BME280;5974;42.710;27.258;2023-03-15T08:29:31;99156.00;;;13.00;51.84
12349;BME280;5974;42.710;27.258;2023-03-15T08:31:58;99149.22;;;12.83;52.09
12349;BME280;5974;42.710;27.258;2023-03-15T08:34:25;99134.38;;;13.86;52.55
12349;BME280;5974;42.710;27.258;2023-03-15T08:36:52;99132.19;;;14.29;50.20
12349;BME280;5974;42.710;27.258;2023-03-15T08:39:19;99124.59;;;15.08;49.78
12349;BME280;5974;42.710;27.258;2023-03-15T08:41:48;99134.53;;;14.81;48.44
12349;BME280;5974;42.710;27.258;2023-03-15T08:44:15;99134.50;;;14.34;49.59
12349;BME280;5974;42.710;27.258;2023-03-15T08:46:44;99128.91;;;15.09;47.30
12349;BME280;5974;42.710;27.258;2023-03-15T08:49:10;99127.69;;;15.02;44.49
12349;BME280;5974;42.710;27.258;2023-03-15T08:51:37;99133.09;;;15.12;45.31
12349;BME280;5974;42.710;27.258;2023-03-15T08:54:04;99129.44;;;14.91;44.94
12349;BME280;5974;42.710;27.258;2023-03-15T08:56:31;99120.41;;;14.35;46.56
12349;BME280;5974;42.710;27.258;2023-03-15T08:58:58;99098.16;;;14.51;45.96
12349;BME280;5974;42.710;27.258;2023-03-15T09:01:25;99113.63;;;14.07;46.91
12349;BME280;5974;42.710;27.258;2023-03-15T09:03:56;99126.75;;;14.07;47.22
12349;BME280;5974;42.710;27.258;2023-03-15T09:06:22;99123.22;;;14.44;47.68
12349;BME280;5974;42.710;27.258;2023-03-15T09:08:49;99126.75;;;14.56;47.09
12349;BME280;5974;42.710;27.258;2023-03-15T09:11:18;99095.19;;;14.56;47.07
12349;BME280;5974;42.710;27.258;2023-03-15T09:13:45;99115.47;;;13.43;46.49
12349;BME280;5974;42.710;27.258;2023-03-15T09:16:11;99115.13;;;13.23;47.87
12349;BME280;5974;42.710;27.258;2023-03-15T09:18:38;99112.97;;;14.16;48.90
12349;BME280;5974;42.710;27.258;2023-03-15T09:21:10;99110.78;;;14.46;47.13
12349;BME280;5974;42.710;27.258;2023-03-15T09:23:37;99120.34;;;14.11;47.11
12349;BME280;5974;42.710;27.258;2023-03-15T09:26:04;99118.84;;;13.58;46.73
12349;BME280;5974;42.710;27.258;2023-03-15T09:28:30;99123.53;;;13.15;47.03
12349;BME280;5974;42.710;27.258;2023-03-15T09:30:57;99122.19;;;13.22;46.50
12349;BME280;5974;42.710;27.258;2023-03-15T09:33:24;99123.84;;;13.23;46.89
12349;BME280;5974;42.710;27.258;2023-03-15T09:35:51;99124.41;;;12.62;48.06
12349;BME280;5974;42.710;27.258;2023-03-15T09:38:20;99116.72;;;13.50;49.01
12349;BME280;5974;42.710;27.258;2023-03-15T09:40:48;99115.50;;;12.65;48.66
12349;BME280;5974;42.710;27.258;2023-03-15T09:43:33;99107.88;;;13.14;47.07
12349;BME280;5974;42.710;27.258;2023-03-15T09:46:13;99105.03;;;14.05;43.11
12349;BME280;5974;42.710;27.258;2023-03-15T09:48:49;99107.91;;;13.77;43.54
12349;BME280;5974;42.710;27.258;2023-03-15T09:51:31;99107.06;;;13.38;44.82
12349;BME280;5974;42.710;27.258;2023-03-15T09:54:03;99095.84;;;14.71;45.04
12349;BME280;5974;42.710;27.258;2023-03-15T09:56:34;99094.63;;;14.98;44.77
12349;BME280;5974;42.710;27.258;2023-03-15T09:59:03;99094.13;;;14.82;45.15
12349;BME280;5974;42.710;27.258;2023-03-15T10:01:35;99089.56;;;14.00;46.38
12349;BME280;5974;42.710;27.258;2023-03-15T10:04:08;99090.19;;;14.40;45.99
12349;BME280;5974;42.710;27.258;2023-03-15T10:06:37;99065.56;;;15.00;45.98
12349;BME280;5974;42.710;27.258;2023-03-15T10:09:15;99068.53;;;14.95;43.43
12349;BME280;5974;42.710;27.258;2023-03-15T10:11:46;99069.22;;;15.32;44.30
12349;BME280;5974;42.710;27.258;2023-03-15T10:14:27;99062.03;;;14.30;45.31
12349;BME280;5974;42.710;27.258;2023-03-15T10:16:59;99057.28;;;14.82;44.76
12349;BME280;5974;42.710;27.258;2023-03-15T10:19:35;99051.41;;;14.31;45.59
12349;BME280;5974;42.710;27.258;2023-03-15T10:22:17;99012.53;;;13.51;47.13
12349;BME280;5974;42.710;27.258;2023-03-15T10:24:49;99031.97;;;13.97;47.32
12349;BME280;5974;42.710;27.258;2023-03-15T10:27:20;99039.03;;;15.14;46.13
12349;BME280;5974;42.710;27.258;2023-03-15T10:29:48;99044.34;;;15.25;45.81
12349;BME280;5974;42.710;27.258;2023-03-15T10:32:19;99027.47;;;15.72;46.21
12349;BME280;5974;42.710;27.258;2023-03-15T10:34:50;99019.69;;;14.80;45.71
12349;BME280;5974;42.710;27.258;2023-03-15T10:37:17;99027.13;;;14.86;46.16
12349;BME280;5974;42.710;27.258;2023-03-15T10:39:47;99019.13;;;14.53;47.66
12349;BME280;5974;42.710;27.258;2023-03-15T10:42:24;99015.53;;;13.70;46.78
12349;BME280;5974;42.710;27.258;2023-03-15T10:44:51;99021.63;;;14.07;47.50
12349;BME280;5974;42.710;27.258;2023-03-15T10:47:19;99011.25;;;14.99;46.49
12349;BME280;5974;42.710;27.258;2023-03-15T10:49:47;99015.19;;;15.50;46.33
12349;BME280;5974;42.710;27.258;2023-03-15T10:52:32;99010.09;;;14.68;45.92
12349;BME280;5974;42.710;27.258;2023-03-15T10:55:04;99010.97;;;14.80;46.84
12349;BME280;5974;42.710;27.258;2023-03-15T10:57:37;99006.28;;;15.40;45.80
12349;BME280;5974;42.710;27.258;2023-03-15T11:00:17;99000.00;;;15.97;46.56
12349;BME280;5974;42.710;27.258;2023-03-15T11:02:49;98995.13;;;15.37;46.50
12349;BME280;5974;42.710;27.258;2023-03-15T11:05:17;98989.13;;;14.55;47.71
12349;BME280;5974;42.710;27.258;2023-03-15T11:07:55;98986.88;;;15.30;47.82
12349;BME280;5974;42.710;27.258;2023-03-15T11:10:25;98980.63;;;14.52;46.88
12349;BME280;5974;42.710;27.258;2023-03-15T11:13:17;98979.25;;;14.35;47.69
12349;BME280;5974;42.710;27.258;2023-03-15T11:15:51;98975.84;;;15.03;46.50
12349;BME280;5974;42.710;27.258;2023-03-15T11:18:26;98973.31;;;15.01;48.04
12349;BME280;5974;42.710;27.258;2023-03-15T11:20:55;98972.84;;;15.30;46.88
12349;BME280;5974;42.710;27.258;2023-03-15T11:23:24;98965.47;;;16.00;45.95
12349;BME280;5974;42.710;27.258;2023-03-15T11:25:53;98961.19;;;15.99;45.79
12349;BME280;5974;42.710;27.258;2023-03-15T11:28:23;98950.50;;;16.32;46.95
12349;BME280;5974;42.710;27.258;2023-03-15T11:30:52;98919.03;;;15.88;46.24
12349;BME280;5974;42.710;27.258;2023-03-15T11:33:28;98942.41;;;17.07;45.18
12349;BME280;5974;42.710;27.258;2023-03-15T11:35:58;98936.22;;;16.35;45.98
12349;BME280;5974;42.710;27.258;2023-03-15T11:38:29;98942.97;;;15.96;45.91
12349;BME280;5974;42.710;27.258;2023-03-15T11:41:01;98946.13;;;15.79;45.96
12349;BME280;5974;42.710;27.258;2023-03-15T11:43:39;98939.41;;;16.17;46.96
12349;BME280;5974;42.710;27.258;2023-03-15T11:46:18;98930.25;;;15.36;46.12
12349;BME280;5974;42.710;27.258;2023-03-15T11:48:49;98936.38;;;15.03;48.16
12349;BME280;5974;42.710;27.258;2023-03-15T11:51:18;98932.78;;;15.15;48.47
12349;BME280;5974;42.710;27.258;2023-03-15T11:53:57;98941.28;;;15.41;47.72
12349;BME280;5974;42.710;27.258;2023-03-15T11:56:46;98934.91;;;15.21;48.46
12349;BME280;5974;42.710;27.258;2023-03-15T11:59:15;98932.66;;;15.28;48.70
12349;BME280;5974;42.710;27.258;2023-03-15T12:01:46;98935.03;;;15.08;48.76
12349;BME280;5974;42.710;27.258;2023-03-15T12:04:41;98900.34;;;14.92;47.93
12349;BME280;5974;42.710;27.258;2023-03-15T12:07:31;98931.78;;;14.72;48.53
12349;BME280;5974;42.710;27.258;2023-03-15T12:10:42;98927.34;;;14.83;49.53
12349;BME280;5974;42.710;27.258;2023-03-15T12:13:30;98928.19;;;14.73;50.25
12349;BME280;5974;42.710;27.258;2023-03-15T12:15:57;98937.19;;;14.35;51.11
12349;BME280;5974;42.710;27.258;2023-03-15T12:18:28;98930.44;;;14.31;50.95
12349;BME280;5974;42.710;27.258;2023-03-15T12:21:14;98927.03;;;14.18;52.27
12349;BME280;5974;42.710;27.258;2023-03-15T12:23:44;98932.28;;;13.83;53.11
12349;BME280;5974;42.710;27.258;2023-03-15T12:26:24;98934.06;;;14.06;53.24
12349;BME280;5974;42.710;27.258;2023-03-15T12:29:03;98930.81;;;14.03;53.90
12349;BME280;5974;42.710;27.258;2023-03-15T12:31:48;98928.63;;;13.97;54.17
12349;BME280;5974;42.710;27.258;2023-03-15T12:34:24;98930.41;;;14.20;54.91
12349;BME280;5974;42.710;27.258;2023-03-15T12:36:55;98926.94;;;14.20;54.90
12349;BME280;5974;42.710;27.258;2023-03-15T12:39:40;98937.47;;;13.72;56.30
12349;BME280;5974;42.710;27.258;2023-03-15T12:48:26;98946.94;;;13.75;57.23
12349;BME280;5974;42.710;27.258;2023-03-15T12:51:01;98927.88;;;14.19;57.96
12349;BME280;5974;42.710;27.258;2023-03-15T12:53:48;98939.69;;;14.83;56.15
12349;BME280;5974;42.710;27.258;2023-03-15T12:56:28;98928.41;;;15.69;54.81
12349;BME280;5974;42.710;27.258;2023-03-15T12:59:02;98925.44;;;15.74;54.33
12349;BME280;5974;42.710;27.258;2023-03-15T13:01:30;98920.50;;;15.81;52.25
12349;BME280;5974;42.710;27.258;2023-03-15T13:04:01;98919.38;;;15.07;53.01
12349;BME280;5974;42.710;27.258;2023-03-15T13:06:36;98916.63;;;15.85;52.87
12349;BME280;5974;42.710;27.258;2023-03-15T13:09:12;98912.16;;;17.20;50.99
12349;BME280;5974;42.710;27.258;2023-03-15T13:11:51;98905.50;;;17.35;50.30
12349;BME280;5974;42.710;27.258;2023-03-15T13:14:30;98907.13;;;17.17;50.74
12349;BME280;5974;42.710;27.258;2023-03-15T13:17:05;98916.75;;;16.67;50.99